LFRT 181630Z AUTO 28006KT 9999 BKN036 BKN046 BKN052 22/14 Q1017

ElémentsDécodage
LFRT Station météo située sur l'aérodrome de SAINT-BRIEUC Armor
181630Z émis le 18 du mois à 16h30 UTC
AUTO Bulletin édité par un automate
28006KT vent du 280°, 06 noeuds
9999 visibilité horizontale supérieure à 10 Km
BKN036 nuages morcelés (5/8 à 7/8) à 3600 pieds
BKN046 nuages morcelés (5/8 à 7/8) à 4600 pieds
BKN052 nuages morcelés (5/8 à 7/8) à 5200 pieds
22/14 température 22°C, point de rosée 14°C
 soit une humidité relative de 61%
Q1017 la pression au niveau de la mer (QNH) est de 1017 hPa